Weather at Bilbeis Air Base

Public forecast

Using degrees Celsius for public forecast. Weather courtesy of forecast.io.

Closest aviation weather report (METAR) to Bilbeis Air Base

Closest report is Cairo International Airport, 19.3 nm (35.7 km) SSW. Retrieved 2020/11/28 22:30 UTC (34 seconds ago):

HECA 282230Z 00000KT 9999 SCT025 15/09 Q1019 NOSIG

Closest aviation forecast (TAF) to Bilbeis Air Base

Closest forecast is Cairo International Airport, 19.3 nm (35.7 km) SSW. Retrieved 2020/11/28 18:40 UTC (4 hours ago):

TAF HECA 281700Z 2818/2924 VRB03KT 9999 SCT025 TEMPO 2822/2908 4000 BR NSC TEMPO 2900/2906 2000